Time;durP1;ratioP1;P1;durP2;ratioP2;P2;SDS_P1;SDS_P2;PMS_P1;PMS_P2;Temp;Humidity;BMP_temperature;BMP_pressure;BME280_temperature;BME280_humidity;BME280_pressure;Samples;Min_cycle;Max_cycle;Signal;HPM_P1;HPM_P2
2022/06/27 00:02:24;;;;;;;2.57;1.50;;;;;;;19.36;98.94;97758.63;5036363;28;20210;-69
2022/06/27 00:04:52;;;;;;;2.73;0.90;;;;;;;19.33;98.21;97737.63;5036592;28;20208;-69
2022/06/27 00:07:19;;;;;;;1.30;1.20;;;;;;;19.27;95.87;97760.31;5036171;28;20206;-69
2022/06/27 00:09:45;;;;;;;1.63;0.97;;;;;;;19.07;98.08;97790.06;5035924;28;20230;-69
2022/06/27 00:12:12;;;;;;;3.07;1.20;;;;;;;19.00;96.86;97811.13;5036061;28;20707;-69
2022/06/27 00:14:38;;;;;;;1.30;0.87;;;;;;;18.95;98.07;97832.69;5036151;28;20296;-70
2022/06/27 00:17:05;;;;;;;3.63;0.90;;;;;;;18.86;95.13;97833.56;5036930;28;20212;-69
2022/06/27 00:19:31;;;;;;;2.37;0.93;;;;;;;18.76;95.28;97855.16;5035577;28;20233;-69
2022/06/27 00:21:58;;;;;;;1.20;1.00;;;;;;;18.74;96.33;97868.09;5035723;28;20205;-69
2022/06/27 00:24:24;;;;;;;1.47;0.90;;;;;;;18.61;98.15;97885.66;5036006;28;20229;-69
2022/06/27 00:26:51;;;;;;;1.07;0.77;;;;;;;18.40;100.00;97904.78;5035766;28;20205;-69
2022/06/27 00:29:17;;;;;;;2.60;0.90;;;;;;;18.29;100.00;97914.75;5035785;28;20228;-70
2022/06/27 00:31:43;;;;;;;2.17;1.20;;;;;;;18.17;100.00;97943.81;5035868;28;20292;-69
2022/06/27 00:34:10;;;;;;;1.73;0.80;;;;;;;17.97;100.00;97978.78;5035821;28;20293;-69
2022/06/27 00:36:36;;;;;;;2.20;1.00;;;;;;;17.91;100.00;98014.03;5035398;28;20703;-69
2022/06/27 00:39:03;;;;;;;2.53;0.90;;;;;;;17.78;100.00;98060.25;5035616;28;20232;-69
2022/06/27 00:41:29;;;;;;;3.97;1.30;;;;;;;17.58;100.00;98052.91;5035674;28;20301;-69
2022/06/27 00:43:56;;;;;;;2.13;1.10;;;;;;;17.55;100.00;98074.16;5035856;28;20576;-69
2022/06/27 00:46:22;;;;;;;3.83;1.10;;;;;;;17.50;100.00;98103.69;5035557;28;20212;-69
2022/06/27 00:48:49;;;;;;;3.53;1.30;;;;;;;17.44;100.00;98124.34;5035315;28;20238;-69
2022/06/27 00:51:16;;;;;;;3.57;1.33;;;;;;;17.34;100.00;98126.97;5035510;28;20275;-69
2022/06/27 00:53:42;;;;;;;4.13;1.53;;;;;;;17.33;100.00;98113.78;5018066;28;20304;-69
2022/06/27 00:56:10;;;;;;;3.50;1.23;;;;;;;17.38;100.00;98089.63;5035377;28;20296;-68
2022/06/27 00:58:37;;;;;;;4.60;1.70;;;;;;;17.34;100.00;98075.09;5035186;28;20245;-68
2022/06/27 01:01:04;;;;;;;4.27;1.67;;;;;;;17.31;100.00;98054.91;5034989;28;20210;-69
2022/06/27 01:03:30;;;;;;;2.73;1.40;;;;;;;17.29;100.00;98032.84;5034925;28;20546;-68
2022/06/27 01:05:58;;;;;;;2.33;1.07;;;;;;;17.27;100.00;98000.09;5035205;28;20210;-68
2022/06/27 01:08:26;;;;;;;1.80;1.10;;;;;;;17.16;100.00;97962.69;5034815;28;20704;-69
2022/06/27 01:10:53;;;;;;;1.77;1.40;;;;;;;17.14;100.00;97911.91;5035115;28;20210;-69
2022/06/27 01:13:20;;;;;;;3.40;1.53;;;;;;;17.06;100.00;97915.09;5034762;28;20206;-68
2022/06/27 01:15:47;;;;;;;1.80;1.27;;;;;;;17.04;100.00;97916.44;5034724;28;20218;-69
2022/06/27 01:18:14;;;;;;;2.20;1.10;;;;;;;17.06;100.00;97919.69;5034252;28;20229;-69
2022/06/27 01:20:46;;;;;;;3.00;1.13;;;;;;;17.00;100.00;97892.00;5034921;28;20301;-69
2022/06/27 01:23:13;;;;;;;2.83;0.90;;;;;;;16.97;100.00;97887.13;5034850;28;20297;-69
2022/06/27 01:25:40;;;;;;;2.60;0.80;;;;;;;17.03;100.00;97907.59;5034518;28;20695;-68
2022/06/27 01:28:09;;;;;;;1.33;1.10;;;;;;;16.98;100.00;97918.31;5034472;28;20226;-69
2022/06/27 01:30:35;;;;;;;2.17;1.10;;;;;;;16.96;100.00;97907.00;5034772;28;20233;-69
2022/06/27 01:33:02;;;;;;;1.17;1.00;;;;;;;16.98;100.00;97880.72;5034671;28;20208;-69
2022/06/27 01:35:28;;;;;;;2.83;1.20;;;;;;;16.97;100.00;97868.34;5034301;28;20560;-69
2022/06/27 01:37:55;;;;;;;2.27;1.10;;;;;;;17.04;100.00;97847.41;5034270;28;20300;-69
2022/06/27 01:40:21;;;;;;;2.10;1.20;;;;;;;17.06;100.00;97836.41;5034452;28;20226;-69
2022/06/27 01:42:48;;;;;;;1.47;1.03;;;;;;;17.00;100.00;97843.66;5034423;28;20710;-69
2022/06/27 01:45:14;;;;;;;3.40;1.10;;;;;;;17.00;100.00;97850.88;5034143;28;20673;-69
2022/06/27 01:47:41;;;;;;;1.57;1.20;;;;;;;16.99;100.00;97852.78;5034348;28;20225;-69
2022/06/27 01:50:08;;;;;;;2.73;1.00;;;;;;;17.02;100.00;97862.19;5034058;28;20214;-69
2022/06/27 01:52:35;;;;;;;2.50;1.10;;;;;;;17.03;100.00;97878.03;5034285;28;20292;-69
2022/06/27 01:55:02;;;;;;;1.90;1.00;;;;;;;17.00;100.00;97872.38;5034232;28;20210;-68
2022/06/27 01:57:28;;;;;;;2.40;1.23;;;;;;;16.98;100.00;97861.09;5034131;28;20207;-69
2022/06/27 01:59:55;;;;;;;3.43;1.17;;;;;;;17.02;100.00;97865.69;5034047;28;20329;-69
2022/06/27 02:02:21;;;;;;;2.73;1.30;;;;;;;17.12;100.00;97862.22;5034146;28;20210;-69
2022/06/27 02:04:48;;;;;;;3.13;1.20;;;;;;;17.11;100.00;97860.59;5034091;28;20206;-69
2022/06/27 02:07:17;;;;;;;1.83;1.27;;;;;;;17.15;100.00;97867.06;5033772;28;20205;-69
2022/06/27 02:09:44;;;;;;;2.13;1.00;;;;;;;17.14;100.00;97876.97;5033988;28;20312;-68
2022/06/27 02:12:20;;;;;;;1.87;1.10;;;;;;;17.11;100.00;97863.28;5033738;28;20214;-69
2022/06/27 02:14:51;;;;;;;3.03;1.27;;;;;;;17.15;100.00;97849.03;5034011;28;20199;-69
2022/06/27 02:17:18;;;;;;;1.73;1.10;;;;;;;17.21;100.00;97857.94;5033915;28;20212;-69
2022/06/27 02:19:45;;;;;;;1.27;1.17;;;;;;;17.15;100.00;97859.00;5033760;28;20225;-69
2022/06/27 02:22:13;;;;;;;5.30;1.13;;;;;;;17.12;100.00;97854.16;5033861;28;20212;-69
2022/06/27 02:24:40;;;;;;;2.87;1.30;;;;;;;17.14;100.00;97858.19;5034042;28;20213;-69
2022/06/27 02:27:08;;;;;;;1.20;1.10;;;;;;;17.18;100.00;97856.59;5033757;28;20212;-69
2022/06/27 02:29:35;;;;;;;2.50;1.13;;;;;;;17.15;100.00;97857.09;5032824;28;20228;-69
2022/06/27 02:32:02;;;;;;;3.90;1.30;;;;;;;17.13;100.00;97859.25;5033373;28;20212;-69
2022/06/27 02:34:33;;;;;;;3.00;1.20;;;;;;;17.15;100.00;97859.78;5033676;28;20212;-69
2022/06/27 02:37:00;;;;;;;2.67;1.50;;;;;;;17.20;100.00;97862.47;5033407;28;20281;-69
2022/06/27 02:39:29;;;;;;;2.90;1.30;;;;;;;17.05;100.00;97848.25;5015955;28;20241;-69
2022/06/27 02:42:00;;;;;;;1.60;1.50;;;;;;;17.09;100.00;97843.91;5033292;28;20206;-69
2022/06/27 02:44:27;;;;;;;2.43;1.30;;;;;;;17.10;100.00;97846.34;5033865;28;20216;-69
2022/06/27 02:46:53;;;;;;;2.90;1.30;;;;;;;17.16;100.00;97833.75;5033270;28;20216;-69
2022/06/27 02:49:21;;;;;;;2.07;1.30;;;;;;;17.18;100.00;97810.91;5033184;28;20233;-68
2022/06/27 02:51:53;;;;;;;2.67;1.43;;;;;;;17.14;100.00;97825.94;5033179;28;20673;-69
2022/06/27 02:54:24;;;;;;;3.03;1.50;;;;;;;17.12;100.00;97833.47;5033188;28;20657;-69
2022/06/27 02:56:56;;;;;;;2.37;1.47;;;;;;;17.17;100.00;97816.56;5033137;28;20712;-68
2022/06/27 02:59:24;;;;;;;3.13;1.50;;;;;;;17.07;100.00;97832.66;5033298;28;20326;-68
2022/06/27 03:01:52;;;;;;;1.60;1.50;;;;;;;17.04;100.00;97822.44;5033346;28;20206;-69
2022/06/27 03:04:19;;;;;;;3.90;1.70;;;;;;;17.03;100.00;97805.53;5033327;28;20300;-69
2022/06/27 03:06:46;;;;;;;2.03;1.40;;;;;;;17.01;100.00;97804.97;5033191;28;20202;-69
2022/06/27 03:09:12;;;;;;;4.57;1.90;;;;;;;17.02;100.00;97822.72;5033745;28;20225;-69
2022/06/27 03:11:39;;;;;;;4.70;1.90;;;;;;;17.05;100.00;97822.16;5033229;28;20216;-69
2022/06/27 03:14:06;;;;;;;2.23;1.70;;;;;;;17.04;100.00;97830.47;5032957;28;20651;-69
2022/06/27 03:16:34;;;;;;;2.07;1.87;;;;;;;17.06;100.00;97839.09;5033244;28;20214;-69
2022/06/27 03:19:01;;;;;;;2.17;1.60;;;;;;;17.02;100.00;97825.41;5033113;28;20229;-69
2022/06/27 03:21:27;;;;;;;3.00;1.83;;;;;;;17.02;100.00;97830.78;5033155;28;20212;-69
2022/06/27 03:23:53;;;;;;;2.77;1.90;;;;;;;17.05;100.00;97834.81;5033083;28;20213;-69
2022/06/27 03:26:20;;;;;;;3.10;1.90;;;;;;;17.02;100.00;97829.97;5032701;28;20209;-69
2022/06/27 03:28:47;;;;;;;3.50;1.70;;;;;;;16.94;100.00;97833.97;5032666;28;20408;-69
2022/06/27 03:31:15;;;;;;;3.40;1.90;;;;;;;16.96;100.00;97826.44;5033788;28;20201;-69
2022/06/27 03:33:42;;;;;;;2.93;2.03;;;;;;;17.01;100.00;97825.66;5032790;28;20214;-69
2022/06/27 03:36:08;;;;;;;3.53;2.23;;;;;;;17.10;100.00;97824.06;5033262;28;20212;-69
2022/06/27 03:38:35;;;;;;;2.33;1.67;;;;;;;17.07;100.00;97846.09;5032750;28;20591;-69
2022/06/27 03:41:02;;;;;;;4.43;1.93;;;;;;;17.15;100.00;97861.69;5034704;28;20226;-69
2022/06/27 03:43:29;;;;;;;3.83;1.97;;;;;;;17.15;100.00;97861.69;5036610;28;20300;-69
2022/06/27 03:45:56;;;;;;;1.40;1.30;;;;;;;17.15;100.00;97864.38;5036482;28;20205;-69
2022/06/27 03:51:07;;;;;;;2.90;1.70;;;;;;;17.11;100.00;97860.59;5036640;28;20177;-69
2022/06/27 03:53:34;;;;;;;3.23;2.00;;;;;;;17.14;100.00;97842.06;5036634;28;20638;-69
2022/06/27 03:56:01;;;;;;;2.30;2.10;;;;;;;17.19;100.00;97833.22;5036337;28;20210;-69
2022/06/27 03:58:27;;;;;;;3.37;1.70;;;;;;;17.22;100.00;97828.13;5036211;28;20226;-69
2022/06/27 04:00:53;;;;;;;2.90;1.67;;;;;;;17.15;100.00;97837.50;5036122;28;20222;-69
2022/06/27 04:03:20;;;;;;;3.27;1.87;;;;;;;17.19;100.00;97817.91;5035937;28;20675;-69
2022/06/27 04:05:47;;;;;;;3.13;1.83;;;;;;;17.30;100.00;97814.16;5035771;28;20202;-69
2022/06/27 04:08:14;;;;;;;4.00;1.93;;;;;;;17.20;100.00;97830.25;5035599;28;20316;-69
2022/06/27 04:10:40;;;;;;;3.20;2.67;;;;;;;17.22;100.00;97832.66;5035857;28;20198;-69
2022/06/27 04:13:06;;;;;;;2.67;2.47;;;;;;;17.17;100.00;97820.06;5036092;28;20202;-69
2022/06/27 04:15:33;;;;;;;3.40;2.73;;;;;;;17.19;100.00;97815.22;5036050;28;20213;-69
2022/06/27 04:17:59;;;;;;;6.57;2.50;;;;;;;17.24;100.00;97836.72;5036298;28;20313;-69
2022/06/27 04:20:26;;;;;;;3.37;2.10;;;;;;;17.17;100.00;97857.66;5035851;28;20222;-69
2022/06/27 04:22:52;;;;;;;4.17;2.60;;;;;;;17.15;100.00;97859.78;5035711;28;20202;-69
2022/06/27 04:25:19;;;;;;;2.87;2.27;;;;;;;17.13;100.00;97845.84;5035454;28;20210;-69
2022/06/27 04:27:45;;;;;;;2.93;2.10;;;;;;;17.21;100.00;97818.44;5035318;28;20665;-69
2022/06/27 04:30:16;;;;;;;5.33;2.50;;;;;;;17.24;100.00;97817.91;5035679;28;20209;-69
2022/06/27 04:32:48;;;;;;;3.93;2.73;;;;;;;17.26;100.00;97813.09;5035418;28;20638;-69
2022/06/27 04:35:15;;;;;;;3.30;2.40;;;;;;;17.30;100.00;97806.09;5035682;28;20194;-70
2022/06/27 04:37:42;;;;;;;4.13;2.20;;;;;;;17.29;100.00;97807.16;5035438;28;20217;-70
2022/06/27 04:40:12;;;;;;;3.20;1.93;;;;;;;17.27;100.00;97803.13;5034880;28;20823;-70
2022/06/27 04:42:39;;;;;;;3.07;2.20;;;;;;;17.33;100.00;97780.56;5035094;28;20206;-69
2022/06/27 04:45:11;;;;;;;2.83;1.97;;;;;;;17.36;100.00;97762.03;5035128;28;20206;-70
2022/06/27 04:47:39;;;;;;;2.20;1.87;;;;;;;17.39;100.00;97774.13;5035231;28;20558;-69
2022/06/27 04:50:08;;;;;;;3.23;1.70;;;;;;;17.47;100.00;97789.75;5034850;28;20259;-69
2022/06/27 04:52:34;;;;;;;2.57;1.70;;;;;;;17.51;100.00;97788.94;5033873;28;20681;-69
2022/06/27 04:55:00;;;;;;;2.50;2.00;;;;;;;17.58;100.00;97777.91;5035045;28;20208;-69
2022/06/27 04:57:27;;;;;;;4.43;1.87;;;;;;;17.59;100.00;97780.31;5034939;28;20279;-69
2022/06/27 04:59:54;;;;;;;4.37;1.67;;;;;;;17.60;100.00;97784.63;5034171;28;20681;-69
2022/06/27 05:02:20;;;;;;;4.00;1.80;;;;;;;17.67;100.00;97793.22;5034257;28;20704;-69
2022/06/27 05:04:47;;;;;;;3.07;1.47;;;;;;;17.73;100.00;97808.28;5034469;28;20297;-69
2022/06/27 05:07:13;;;;;;;3.83;1.70;;;;;;;17.79;100.00;97823.34;5034226;28;20249;-69
2022/06/27 05:09:39;;;;;;;3.80;1.90;;;;;;;18.05;100.00;97816.84;5034523;28;20308;-69
2022/06/27 05:12:06;;;;;;;2.03;1.50;;;;;;;18.33;100.00;97820.84;5034053;28;20220;-69
2022/06/27 05:14:32;;;;;;;4.07;1.70;;;;;;;18.59;100.00;97838.53;5034493;28;20206;-69
2022/06/27 05:16:59;;;;;;;2.27;1.63;;;;;;;18.81;100.00;97830.88;5033722;28;20217;-69
2022/06/27 05:19:25;;;;;;;1.77;1.30;;;;;;;18.75;100.00;97843.59;5033597;28;20317;-69
2022/06/27 05:21:52;;;;;;;1.40;1.30;;;;;;;18.83;100.00;97855.66;5034678;28;20300;-69
2022/06/27 05:24:18;;;;;;;1.20;1.10;;;;;;;18.57;100.00;97875.69;5034190;28;20206;-70
2022/06/27 05:26:45;;;;;;;1.53;1.40;;;;;;;18.63;100.00;97871.88;5034208;28;20233;-69
2022/06/27 05:29:12;;;;;;;1.93;1.50;;;;;;;18.55;100.00;97873.25;5033607;28;20229;-69
2022/06/27 05:31:38;;;;;;;2.33;1.60;;;;;;;18.53;100.00;97878.13;5034146;28;20205;-68
2022/06/27 05:34:05;;;;;;;1.60;1.50;;;;;;;18.50;100.00;97880.56;5033864;28;20205;-69
2022/06/27 05:36:31;;;;;;;2.27;1.57;;;;;;;18.43;100.00;97897.00;5034053;28;20296;-69
2022/06/27 05:38:58;;;;;;;3.77;1.80;;;;;;;18.46;100.00;97879.50;5033745;28;20230;-69
2022/06/27 05:41:24;;;;;;;1.90;1.50;;;;;;;18.36;100.00;97893.78;5033916;28;20249;-69
2022/06/27 05:43:51;;;;;;;3.77;1.77;;;;;;;18.34;100.00;97901.31;5033966;28;20304;-69
2022/06/27 05:46:19;;;;;;;5.00;1.87;;;;;;;18.36;100.00;97934.16;5033975;28;20205;-69
2022/06/27 05:48:46;;;;;;;3.43;1.90;;;;;;;18.33;100.00;97947.34;5033300;28;20229;-69
2022/06/27 05:51:12;;;;;;;4.57;2.10;;;;;;;18.36;100.00;97944.09;5033772;28;20192;-69
2022/06/27 05:53:40;;;;;;;2.20;2.00;;;;;;;18.53;100.00;97936.53;5033526;28;20699;-69
2022/06/27 05:56:07;;;;;;;2.57;1.90;;;;;;;18.62;100.00;97935.72;5033504;28;20662;-69
2022/06/27 05:58:35;;;;;;;3.80;1.90;;;;;;;18.63;100.00;97940.03;5032960;28;20226;-69
2022/06/27 06:01:01;;;;;;;1.83;1.50;;;;;;;18.54;100.00;97959.69;5033565;28;20312;-69
2022/06/27 06:03:28;;;;;;;3.00;1.50;;;;;;;18.61;100.00;97955.66;5033127;28;20206;-70
2022/06/27 06:05:54;;;;;;;1.90;1.33;;;;;;;18.59;100.00;97957.78;5033392;28;20240;-69
2022/06/27 06:08:21;;;;;;;3.27;1.30;;;;;;;18.60;100.00;97958.63;5033182;28;20236;-69
2022/06/27 06:10:49;;;;;;;2.73;1.43;;;;;;;18.59;100.00;97967.78;5034279;28;20254;-69
2022/06/27 06:13:15;;;;;;;1.63;1.30;;;;;;;18.61;100.00;97976.38;5033137;28;20205;-69
2022/06/27 06:15:42;;;;;;;4.13;1.60;;;;;;;18.79;100.00;97979.31;5033484;28;20284;-69
2022/06/27 06:18:09;;;;;;;3.07;1.20;;;;;;;18.70;100.00;97994.41;5032824;28;20229;-69
2022/06/27 06:20:35;;;;;;;2.13;1.47;;;;;;;18.59;100.00;97994.72;5033092;28;20324;-69
2022/06/27 06:23:02;;;;;;;1.40;1.30;;;;;;;18.58;100.00;97974.22;5033571;28;20260;-69
2022/06/27 06:25:29;;;;;;;3.43;1.00;;;;;;;18.50;100.00;97974.78;5033556;28;20206;-68
2022/06/27 06:28:01;;;;;;;2.93;1.13;;;;;;;18.35;100.00;97983.69;5033069;28;20665;-69
2022/06/27 06:30:29;;;;;;;3.77;1.63;;;;;;;18.50;100.00;97982.88;5033026;28;20281;-70
2022/06/27 06:32:57;;;;;;;1.33;1.23;;;;;;;18.68;100.00;97979.63;5032752;28;20206;-70
2022/06/27 06:35:24;;;;;;;2.37;1.40;;;;;;;18.85;100.00;97982.78;5032941;28;20252;-70
2022/06/27 06:37:51;;;;;;;6.03;2.03;;;;;;;18.91;100.00;97987.09;5032459;28;20213;-70
2022/06/27 06:40:17;;;;;;;1.63;1.30;;;;;;;19.11;100.00;97985.16;5033075;28;20226;-71
2022/06/27 06:42:45;;;;;;;8.67;6.37;;;;;;;19.09;100.00;97991.91;5032682;28;20216;-71
2022/06/27 06:45:11;;;;;;;5.97;5.37;;;;;;;19.02;100.00;97986.81;5033065;28;20210;-70
2022/06/27 06:47:46;;;;;;;1.43;1.00;;;;;;;19.14;100.00;97986.50;5033085;28;20206;-70
2022/06/27 06:50:18;;;;;;;4.80;4.07;;;;;;;19.11;100.00;97992.41;5032731;28;20301;-70
2022/06/27 06:52:46;;;;;;;8.50;7.70;;;;;;;19.10;100.00;97996.19;5033536;28;20522;-70
2022/06/27 06:55:15;;;;;;;1.63;1.33;;;;;;;19.11;100.00;97992.41;5032368;28;20542;-70
2022/06/27 06:57:41;;;;;;;1.57;1.10;;;;;;;19.17;100.00;98000.22;5032710;28;20657;-70
2022/06/27 07:00:09;;;;;;;3.30;1.30;;;;;;;19.50;100.00;98001.47;5032833;28;20316;-70
2022/06/27 07:02:37;;;;;;;2.70;1.37;;;;;;;19.57;100.00;98001.97;5033059;28;20229;-70
2022/06/27 07:05:08;;;;;;;6.60;6.00;;;;;;;19.52;100.00;97989.31;5032897;28;20570;-70
2022/06/27 07:07:35;;;;;;;1.50;1.30;;;;;;;19.53;100.00;98000.91;5033073;28;20198;-70
2022/06/27 07:10:03;;;;;;;1.27;0.90;;;;;;;19.58;100.00;98015.19;5033116;28;20248;-70
2022/06/27 07:12:33;;;;;;;14.03;12.53;;;;;;;19.26;100.00;98008.56;5032948;28;20300;-70
2022/06/27 07:15:00;;;;;;;1.87;1.27;;;;;;;19.28;100.00;98012.59;5032616;28;20206;-69
2022/06/27 07:17:27;;;;;;;20.07;17.30;;;;;;;19.24;100.00;98006.16;5036549;28;20212;-70
2022/06/27 07:19:54;;;;;;;7.50;5.53;;;;;;;19.43;100.00;98004.47;5036765;28;20228;-70
2022/06/27 07:22:23;;;;;;;2.07;1.03;;;;;;;19.26;100.00;98001.28;5036412;28;20619;-70
2022/06/27 07:24:52;;;;;;;2.87;1.10;;;;;;;19.36;100.00;97997.75;5036641;28;20587;-70
2022/06/27 07:27:20;;;;;;;2.63;1.10;;;;;;;19.72;100.00;97984.91;5036499;28;20224;-70
2022/06/27 07:29:48;;;;;;;1.30;1.20;;;;;;;19.77;100.00;97988.38;5036296;28;20233;-70
2022/06/27 07:32:15;;;;;;;2.57;1.17;;;;;;;20.04;100.00;97998.72;5036069;28;20731;-70
2022/06/27 07:34:41;;;;;;;1.27;1.00;;;;;;;19.93;100.00;97999.88;5036044;28;20213;-71
2022/06/27 07:37:08;;;;;;;0.80;0.77;;;;;;;19.83;100.00;97995.34;5036210;28;20217;-70
2022/06/27 07:39:34;;;;;;;0.87;0.87;;;;;;;19.98;100.00;98007.94;5035968;28;20229;-71
2022/06/27 07:42:01;;;;;;;0.93;0.90;;;;;;;19.74;100.00;98007.81;5036272;28;20222;-71
2022/06/27 07:44:28;;;;;;;0.80;0.70;;;;;;;19.90;100.00;98017.41;5035850;28;20677;-71
2022/06/27 07:46:56;;;;;;;1.37;1.17;;;;;;;20.13;100.00;98037.56;5035960;28;20673;-71
2022/06/27 07:49:22;;;;;;;5.07;3.77;;;;;;;20.38;100.00;98040.88;5035681;28;20326;-71
2022/06/27 07:51:49;;;;;;;1.17;1.00;;;;;;;20.27;99.54;98044.75;5036126;28;20289;-71
2022/06/27 07:54:16;;;;;;;1.63;0.90;;;;;;;20.47;100.00;98038.38;5035933;28;20624;-71
2022/06/27 07:56:43;;;;;;;4.87;4.23;;;;;;;20.35;100.00;98040.66;5036333;28;20292;-71
2022/06/27 07:59:10;;;;;;;1.60;1.10;;;;;;;20.53;90.89;98045.38;5036151;28;20226;-71
2022/06/27 08:01:37;;;;;;;3.00;2.20;;;;;;;20.42;99.02;98052.75;5035926;28;20228;-71
2022/06/27 08:04:04;;;;;;;4.57;4.17;;;;;;;20.52;97.50;98055.34;5035923;28;20214;-71
2022/06/27 08:06:31;;;;;;;5.53;3.93;;;;;;;20.43;93.19;98070.53;5036065;28;20212;-71
2022/06/27 08:09:00;;;;;;;0.90;0.90;;;;;;;20.49;88.77;98071.31;5035345;28;20784;-71
2022/06/27 08:11:29;;;;;;;3.70;1.80;;;;;;;20.49;91.31;98074.84;5036064;28;20208;-71
2022/06/27 08:14:03;;;;;;;1.37;1.27;;;;;;;20.61;98.03;98069.09;5035848;28;20213;-71
2022/06/27 08:16:30;;;;;;;5.37;4.90;;;;;;;20.80;90.70;98078.09;5035730;28;20277;-71
2022/06/27 08:18:57;;;;;;;1.30;0.90;;;;;;;20.64;89.39;98071.19;5035821;28;20218;-71
2022/06/27 08:21:25;;;;;;;1.40;0.87;;;;;;;20.76;88.94;98074.34;5035040;28;20313;-71
2022/06/27 08:23:58;;;;;;;1.17;0.80;;;;;;;20.94;91.00;98079.88;5035523;28;20210;-71
2022/06/27 08:26:26;;;;;;;1.70;0.90;;;;;;;21.13;88.15;98074.56;5035047;28;20194;-71
2022/06/27 08:28:53;;;;;;;3.60;2.27;;;;;;;20.98;88.23;98083.63;5034644;28;20233;-71
2022/06/27 08:31:21;;;;;;;1.57;0.97;;;;;;;20.77;86.52;98084.06;5035312;28;20733;-71
2022/06/27 08:33:49;;;;;;;1.57;0.90;;;;;;;20.76;87.46;98085.16;5035511;28;20297;-71
2022/06/27 08:36:17;;;;;;;3.57;1.20;;;;;;;20.84;90.11;98076.44;5035213;28;20573;-70
2022/06/27 08:38:48;;;;;;;4.30;3.17;;;;;;;21.00;93.37;98088.75;5035257;28;20232;-71
2022/06/27 08:41:16;;;;;;;4.30;3.67;;;;;;;20.85;94.94;98097.75;5035441;28;20248;-70
2022/06/27 08:43:43;;;;;;;1.30;1.00;;;;;;;20.76;98.41;98096.75;5034917;28;20704;-70
2022/06/27 08:46:15;;;;;;;2.90;2.70;;;;;;;20.69;93.13;98098.97;5035122;28;20212;-70
2022/06/27 08:48:42;;;;;;;0.80;0.80;;;;;;;20.65;89.77;98099.81;5035347;28;20283;-69
2022/06/27 08:51:10;;;;;;;2.97;0.90;;;;;;;20.58;93.93;98099.34;5034855;28;20186;-69
2022/06/27 08:53:38;;;;;;;2.37;1.60;;;;;;;20.36;98.30;98107.06;5035095;28;20206;-69
2022/06/27 08:56:06;;;;;;;4.60;2.40;;;;;;;20.50;96.16;98106.16;5034789;28;20209;-69
2022/06/27 08:58:32;;;;;;;7.50;6.50;;;;;;;20.34;98.34;98103.84;5034887;28;20276;-69
2022/06/27 09:00:59;;;;;;;1.23;0.90;;;;;;;20.28;99.15;98110.34;5035047;28;20261;-70
2022/06/27 09:03:25;;;;;;;3.40;2.43;;;;;;;20.17;93.89;98098.78;5034731;28;20575;-69
2022/06/27 09:06:01;;;;;;;1.70;1.00;;;;;;;20.25;95.96;98100.13;5034699;28;20732;-69
2022/06/27 09:08:31;;;;;;;1.23;1.13;;;;;;;20.35;92.97;98090.03;5035160;28;20312;-68
2022/06/27 09:10:59;;;;;;;3.43;2.47;;;;;;;20.24;94.73;98093.09;5035163;28;20209;-69
2022/06/27 09:13:27;;;;;;;2.97;1.20;;;;;;;20.29;99.83;98095.75;5034430;28;20774;-69
2022/06/27 09:16:04;;;;;;;2.77;0.97;;;;;;;20.40;97.19;98113.50;5034689;28;20267;-69
2022/06/27 09:18:34;;;;;;;2.87;1.30;;;;;;;20.39;100.00;98122.72;5034678;28;20229;-69
2022/06/27 09:21:09;;;;;;;1.30;1.07;;;;;;;20.36;98.36;98123.25;5034468;28;20316;-69
2022/06/27 09:23:44;;;;;;;1.10;1.00;;;;;;;20.40;96.60;98116.22;5034711;28;20216;-69
2022/06/27 09:26:12;;;;;;;1.57;1.43;;;;;;;20.39;94.28;98106.50;5034376;28;20289;-69
2022/06/27 09:29:00;;;;;;;1.20;1.10;;;;;;;20.49;93.27;98111.84;5034099;28;20284;-69
2022/06/27 09:31:27;;;;;;;3.13;1.10;;;;;;;20.61;99.30;98104.19;5034056;28;20222;-69
2022/06/27 09:34:19;;;;;;;1.10;1.10;;;;;;;20.51;97.85;98099.66;5033887;28;20206;-69
2022/06/27 09:37:03;;;;;;;4.47;1.27;;;;;;;20.58;98.67;98094.72;5033804;28;20230;-69
2022/06/27 09:39:39;;;;;;;1.87;1.10;;;;;;;20.59;94.76;98100.94;5033489;28;20233;-69
2022/06/27 09:42:07;;;;;;;2.20;1.70;;;;;;;20.52;95.17;98095.06;5017090;28;20214;-69
2022/06/27 09:44:38;;;;;;;1.40;1.30;;;;;;;20.38;96.54;98091.38;5033844;28;20217;-69
2022/06/27 09:47:05;;;;;;;2.33;1.50;;;;;;;20.39;98.78;98090.31;5033651;28;20645;-69
2022/06/27 09:49:37;;;;;;;2.13;1.57;;;;;;;20.40;99.46;98075.72;5033607;28;20287;-69
2022/06/27 09:52:08;;;;;;;1.97;1.20;;;;;;;20.50;96.69;98086.44;5034006;28;20202;-69
2022/06/27 09:54:36;;;;;;;2.03;1.10;;;;;;;21.01;93.68;98107.38;5033651;28;20634;-69
2022/06/27 09:57:03;;;;;;;1.67;1.50;;;;;;;21.12;96.19;98103.47;5033290;28;20561;-69
2022/06/27 09:59:30;;;;;;;1.60;1.10;;;;;;;21.39;93.48;98108.38;5033412;28;20226;-69
2022/06/27 10:01:58;;;;;;;2.43;1.50;;;;;;;21.57;91.95;98121.94;5033693;28;20257;-69
2022/06/27 10:04:29;;;;;;;1.77;1.63;;;;;;;21.21;88.69;98126.13;5033738;28;20202;-69
2022/06/27 10:06:59;;;;;;;2.77;1.10;;;;;;;21.66;86.95;98124.84;5033787;28;20209;-69
2022/06/27 10:09:26;;;;;;;1.60;1.50;;;;;;;21.54;88.59;98135.25;5015632;28;20639;-69
2022/06/27 10:12:24;;;;;;;1.93;1.73;;;;;;;21.29;90.11;98138.22;5033758;28;20210;-69
2022/06/27 10:15:20;;;;;;;1.53;1.43;;;;;;;21.33;84.95;98148.19;5033458;28;20202;-69
2022/06/27 10:17:46;;;;;;;2.33;2.13;;;;;;;21.03;89.67;98147.66;5031824;28;20674;-69
2022/06/27 10:20:19;;;;;;;2.57;2.03;;;;;;;20.90;90.13;98146.41;5033322;28;20296;-69
2022/06/27 10:22:48;;;;;;;1.73;1.60;;;;;;;20.89;88.33;98154.78;5033678;28;20395;-69
2022/06/27 10:25:27;;;;;;;2.07;1.87;;;;;;;20.88;91.51;98172.88;5033171;28;20638;-69
2022/06/27 10:28:08;;;;;;;2.07;1.97;;;;;;;20.87;87.30;98186.66;5033367;28;20202;-69
2022/06/27 10:30:42;;;;;;;1.60;1.50;;;;;;;20.90;88.71;98192.38;5033075;28;20202;-69
2022/06/27 10:33:23;;;;;;;3.50;3.17;;;;;;;21.05;93.07;98186.84;5033736;28;20186;-69
2022/06/27 10:35:57;;;;;;;4.53;2.10;;;;;;;21.29;85.66;98189.63;5033205;28;20210;-68
2022/06/27 10:38:44;;;;;;;2.30;2.07;;;;;;;21.23;84.04;98183.44;5033256;28;20226;-68
2022/06/27 10:41:32;;;;;;;2.23;2.13;;;;;;;21.23;84.06;98185.31;5016938;28;20216;-68
2022/06/27 10:44:01;;;;;;;2.30;2.10;;;;;;;21.33;84.98;98182.53;5022880;28;20210;-69
2022/06/27 10:46:30;;;;;;;2.53;2.37;;;;;;;21.27;86.82;98183.66;5033353;28;20569;-68
2022/06/27 10:48:58;;;;;;;2.30;2.13;;;;;;;21.48;83.66;98193.22;5032560;28;20322;-69
2022/06/27 10:51:28;;;;;;;2.30;2.10;;;;;;;21.76;83.62;98193.25;5032038;28;20599;-69
2022/06/27 10:54:00;;;;;;;3.03;2.77;;;;;;;21.86;82.88;98187.72;5032966;28;20209;-69
2022/06/27 10:56:29;;;;;;;2.43;2.30;;;;;;;21.94;82.93;98192.50;5032803;28;20753;-69
2022/06/27 10:59:01;;;;;;;2.27;1.70;;;;;;;21.85;86.48;98185.28;5032794;28;20230;-69
2022/06/27 11:01:28;;;;;;;2.10;1.90;;;;;;;21.71;78.22;98184.34;5032549;28;20214;-69
2022/06/27 11:03:55;;;;;;;3.40;1.70;;;;;;;21.37;78.39;98178.97;5032963;28;20216;-70
2022/06/27 11:06:22;;;;;;;1.87;1.63;;;;;;;21.48;79.07;98171.56;5032574;28;20209;-69
2022/06/27 11:08:50;;;;;;;2.73;1.80;;;;;;;21.65;82.77;98182.75;5033324;28;20228;-70
2022/06/27 11:11:27;;;;;;;2.23;1.90;;;;;;;21.56;81.20;98184.50;5032378;28;20732;-70
2022/06/27 11:13:58;;;;;;;1.57;1.47;;;;;;;21.78;79.94;98196.44;5032499;28;20189;-70
2022/06/27 11:16:29;;;;;;;1.87;1.77;;;;;;;21.56;79.27;98190.69;5032789;28;20198;-70
2022/06/27 11:20:04;;;;;;;3.97;1.60;;;;;;;21.42;80.53;98197.88;5032678;28;20226;-69
2022/06/27 11:21:52;;;;;;;1.67;1.57;;;;;;;21.53;78.48;98206.69;5032517;28;20221;-70
2022/06/27 11:24:18;;;;;;;1.67;1.57;;;;;;;21.46;80.10;98200.78;5032691;28;20297;-69
2022/06/27 11:26:50;;;;;;;1.70;1.50;;;;;;;21.44;81.49;98203.00;5032931;28;20562;-69
2022/06/27 11:32:08;;;;;;;1.53;1.40;;;;;;;21.34;80.44;98200.38;5032795;28;20166;-68
2022/06/27 11:34:39;;;;;;;3.40;1.63;;;;;;;21.29;85.34;98203.13;5032790;28;20264;-69
2022/06/27 11:37:11;;;;;;;2.43;1.60;;;;;;;21.38;80.66;98207.63;5032315;28;20201;-69
2022/06/27 11:39:39;;;;;;;4.67;4.27;;;;;;;21.24;81.12;98206.69;5032524;28;20229;-69